Time;durP1;ratioP1;P1;durP2;ratioP2;P2;SDS_P1;SDS_P2;PMS_P1;PMS_P2;Temp;Humidity;BMP_temperature;BMP_pressure;BME280_temperature;BME280_humidity;BME280_pressure;Samples;Min_cycle;Max_cycle;Signal;HPM_P1;HPM_P2
2023/05/30 00:01:13;;;;;;;21.17;4.70;;;14.10;99.90;;;13.37;100.00;101599.53;4135358;28;20121;-83
2023/05/30 00:03:14;;;;;;;19.65;4.72;;;14.10;99.90;;;13.37;100.00;101620.72;4153461;28;20073;-82
2023/05/30 00:05:15;;;;;;;16.70;4.32;;;14.00;99.90;;;13.29;100.00;101600.28;4153394;28;20036;-83
2023/05/30 00:07:17;;;;;;;19.85;4.90;;;14.00;99.90;;;13.27;100.00;101608.41;4153343;28;20140;-82
2023/05/30 00:09:19;;;;;;;12.40;4.88;;;14.00;99.90;;;13.27;100.00;101619.00;4151855;28;20030;-82
2023/05/30 00:11:20;;;;;;;21.30;5.47;;;13.90;99.90;;;13.16;100.00;101607.78;4153365;28;20040;-82
2023/05/30 00:13:21;;;;;;;15.27;5.90;;;13.90;99.90;;;13.12;100.00;101601.97;4151831;28;20038;-82
2023/05/30 00:15:22;;;;;;;17.27;4.40;;;13.80;99.90;;;13.15;100.00;101612.25;4163338;28;20046;-82
2023/05/30 00:17:22;;;;;;;20.13;5.10;;;13.80;99.90;;;13.25;100.00;101636.03;4154823;28;20053;-82
2023/05/30 00:19:23;;;;;;;18.85;4.97;;;13.80;99.90;;;13.03;100.00;101605.47;4153250;28;20074;-82
2023/05/30 00:21:24;;;;;;;17.00;4.43;;;13.80;99.90;;;13.07;100.00;101612.16;4152160;28;20057;-83
2023/05/30 00:23:28;;;;;;;14.55;4.85;;;13.70;99.90;;;13.14;100.00;101633.63;4167392;28;20025;-82
2023/05/30 00:25:29;;;;;;;24.08;5.15;;;13.70;99.90;;;12.92;100.00;101602.22;4167062;28;20458;-82
2023/05/30 00:27:30;;;;;;;13.38;5.05;;;13.70;99.90;;;12.99;100.00;101614.69;4153158;28;20042;-83
2023/05/30 00:29:31;;;;;;;24.95;5.68;;;13.60;99.90;;;12.85;100.00;101596.69;4135494;28;20039;-83
2023/05/30 00:31:32;;;;;;;15.38;4.68;;;13.60;99.90;;;12.95;100.00;101618.66;4151796;28;20046;-82
2023/05/30 00:33:32;;;;;;;19.27;6.68;;;13.60;99.90;;;12.90;100.00;101614.78;4167922;28;20401;-83
2023/05/30 00:35:33;;;;;;;23.55;5.03;;;13.60;99.90;;;12.86;100.00;101619.56;4169369;28;20068;-82
2023/05/30 00:37:34;;;;;;;16.88;5.75;;;13.60;99.90;;;12.78;100.00;101611.53;4167984;28;20043;-83
2023/05/30 00:39:35;;;;;;;17.02;5.18;;;13.50;99.90;;;12.89;100.00;101629.84;4169323;28;20496;-83
2023/05/30 00:41:36;;;;;;;19.80;5.18;;;13.50;99.90;;;12.67;100.00;101587.88;4167895;28;20030;-83
2023/05/30 00:43:37;;;;;;;18.55;5.22;;;13.40;99.90;;;12.78;100.00;101627.41;4169095;28;20026;-83
2023/05/30 00:45:39;;;;;;;19.40;5.70;;;13.40;99.90;;;12.81;100.00;101627.13;4151548;28;20034;-83
2023/05/30 00:47:40;;;;;;;16.02;4.63;;;13.40;99.90;;;12.61;100.00;101597.25;4169325;28;20030;-83
2023/05/30 00:49:40;;;;;;;19.15;5.80;;;13.30;99.90;;;12.63;100.00;101602.41;4167729;28;20021;-83
2023/05/30 00:51:41;;;;;;;17.67;5.15;;;13.30;99.90;;;12.63;100.00;101602.41;4169136;28;20030;-83
2023/05/30 00:53:43;;;;;;;17.25;4.40;;;13.30;99.90;;;12.62;100.00;101606.03;4167938;28;20392;-83
2023/05/30 00:55:44;;;;;;;15.88;4.93;;;13.30;99.90;;;12.55;100.00;101602.31;4167757;28;20052;-83
2023/05/30 00:57:46;;;;;;;21.48;6.40;;;13.30;99.90;;;12.55;100.00;101604.94;4168698;28;20494;-82
2023/05/30 00:59:48;;;;;;;13.95;4.47;;;13.30;99.90;;;12.49;100.00;101597.59;4167964;28;20043;-83
2023/05/30 01:01:50;;;;;;;19.33;5.70;;;13.20;99.90;;;12.45;100.00;101596.25;4168981;28;20029;-83
2023/05/30 01:03:51;;;;;;;21.63;4.88;;;13.20;99.90;;;12.44;100.00;101597.22;4155857;28;20037;-83
2023/05/30 01:05:53;;;;;;;23.38;6.40;;;13.20;99.90;;;12.37;100.00;101598.78;4152498;28;20022;-82
2023/05/30 01:07:54;;;;;;;21.17;5.32;;;13.20;99.90;;;12.38;100.00;101597.81;4151508;28;20398;-83
2023/05/30 01:09:56;;;;;;;17.55;5.22;;;13.10;99.90;;;12.35;100.00;101595.47;4151399;28;20025;-82
2023/05/30 01:12:17;;;;;;;20.40;5.22;;;13.10;99.90;;;12.34;100.00;101607.00;4151294;28;20030;-83
2023/05/30 01:14:36;;;;;;;23.38;4.90;;;13.10;99.90;;;12.50;100.00;101631.88;4154797;28;20053;-83
2023/05/30 01:16:45;;;;;;;14.90;4.25;;;13.00;99.90;;;12.30;100.00;101592.44;4166031;28;20418;-82
2023/05/30 01:19:07;;;;;;;14.05;4.50;;;13.10;99.90;;;12.38;100.00;101613.69;4167860;28;20026;-82
2023/05/30 01:21:10;;;;;;;16.25;5.10;;;13.00;99.90;;;12.36;100.00;101627.06;4167879;28;20025;-82
2023/05/30 01:23:32;;;;;;;19.13;4.80;;;13.00;99.90;;;12.39;100.00;101628.59;4155243;28;20017;-82
2023/05/30 01:26:12;;;;;;;15.00;4.97;;;12.90;99.90;;;12.28;100.00;101623.47;4150936;28;20269;-82
2023/05/30 01:28:20;;;;;;;11.63;4.30;;;12.90;99.90;;;12.13;100.00;101604.59;4152140;28;20030;-83
2023/05/30 01:30:24;;;;;;;14.02;4.70;;;12.90;99.90;;;12.10;100.00;101608.34;4135087;28;20025;-82
2023/05/30 01:32:25;;;;;;;18.48;5.57;;;12.80;99.90;;;12.23;100.00;101637.13;4152400;28;20108;-82
2023/05/30 01:34:26;;;;;;;14.75;5.53;;;12.90;99.90;;;12.00;100.00;101598.81;4165018;28;20026;-83
2023/05/30 01:36:30;;;;;;;15.73;4.82;;;12.80;99.90;;;11.98;100.00;101606.88;4167442;28;20036;-83
2023/05/30 01:38:31;;;;;;;17.20;5.28;;;12.70;99.90;;;11.98;100.00;101609.50;4167481;28;20029;-83
2023/05/30 01:40:33;;;;;;;23.10;6.00;;;12.70;99.90;;;12.05;100.00;101628.28;4167540;28;20056;-83
2023/05/30 01:42:34;;;;;;;20.17;5.93;;;12.70;99.90;;;11.94;100.00;101607.31;4167464;28;20072;-83
2023/05/30 01:45:06;;;;;;;20.65;4.85;;;12.60;99.90;;;12.03;100.00;101633.75;4167205;28;20033;-83
2023/05/30 01:47:15;;;;;;;26.60;4.93;;;12.60;99.90;;;11.89;100.00;101620.94;4167526;28;20036;-83
2023/05/30 01:49:59;;;;;;;25.48;5.07;;;12.60;99.90;;;11.89;100.00;101623.59;4168449;28;20487;-83
2023/05/30 01:52:24;;;;;;;15.30;5.82;;;12.60;99.90;;;11.83;100.00;101618.88;4150671;28;20037;-82
2023/05/30 01:54:28;;;;;;;23.90;5.82;;;12.50;99.90;;;11.76;100.00;101603.75;4167301;28;20108;-82
2023/05/30 01:56:31;;;;;;;21.70;5.57;;;12.50;99.90;;;11.68;100.00;101599.97;4168596;28;20029;-83
2023/05/30 01:58:34;;;;;;;17.75;5.63;;;12.50;99.90;;;11.71;100.00;101606.78;4167134;28;20515;-83
2023/05/30 02:00:36;;;;;;;19.20;5.63;;;12.50;99.90;;;11.83;100.00;101629.44;4168657;28;20093;-83
2023/05/30 02:02:37;;;;;;;24.38;6.20;;;12.50;99.90;;;11.70;100.00;101614.88;4167354;28;20646;-83
2023/05/30 02:04:38;;;;;;;24.27;4.93;;;12.50;99.90;;;11.71;100.00;101611.28;4165213;28;20029;-82
2023/05/30 02:06:39;;;;;;;20.48;6.25;;;12.40;99.90;;;11.60;100.00;101596.38;4152119;28;20046;-82
2023/05/30 02:08:40;;;;;;;18.52;5.97;;;12.40;99.90;;;11.60;100.00;101596.38;4152081;28;20370;-82
2023/05/30 02:10:40;;;;;;;15.68;4.80;;;12.40;99.90;;;11.64;100.00;101606.53;4150886;28;20030;-82
2023/05/30 02:12:41;;;;;;;22.67;5.60;;;12.30;99.90;;;11.59;100.00;101606.09;4151702;28;20022;-82
2023/05/30 02:14:43;;;;;;;16.35;4.55;;;12.30;99.90;;;11.65;100.00;101615.25;4156606;28;20412;-83
2023/05/30 02:16:44;;;;;;;22.17;6.32;;;12.30;99.90;;;11.68;100.00;101622.91;4158969;28;20489;-82
2023/05/30 02:18:45;;;;;;;17.45;5.65;;;12.30;99.90;;;11.54;100.00;101612.78;4151948;28;20034;-83
2023/05/30 02:20:46;;;;;;;32.03;6.90;;;12.30;99.90;;;11.45;100.00;101592.47;4134612;28;20069;-82
2023/05/30 02:22:47;;;;;;;19.60;5.43;;;12.30;99.90;;;11.55;100.00;101617.09;4156979;28;20026;-83
2023/05/30 02:24:48;;;;;;;18.13;5.80;;;12.20;99.90;;;11.42;100.00;101596.25;4152404;28;20041;-83
2023/05/30 02:26:49;;;;;;;15.65;5.22;;;12.20;99.90;;;11.46;100.00;101610.03;4155380;28;20083;-82
2023/05/30 02:28:50;;;;;;;21.27;6.00;;;12.20;99.90;;;11.55;100.00;101617.94;4163317;28;20024;-82
2023/05/30 02:30:51;;;;;;;19.15;5.13;;;12.20;99.90;;;11.56;100.00;101626.69;4153862;28;20037;-83
2023/05/30 02:32:52;;;;;;;14.98;5.50;;;12.20;99.90;;;11.44;100.00;101609.34;4171264;28;20053;-83
2023/05/30 02:34:53;;;;;;;20.63;7.75;;;12.10;99.90;;;11.36;100.00;101603.91;4170193;28;20025;-83
2023/05/30 02:36:56;;;;;;;16.65;5.30;;;12.10;99.90;;;11.51;100.00;101631.56;4171039;28;20021;-83
2023/05/30 02:38:57;;;;;;;19.60;5.10;;;12.10;99.90;;;11.36;100.00;101611.81;4161330;28;20096;-82
2023/05/30 02:40:58;;;;;;;17.23;6.32;;;12.10;99.90;;;11.31;100.00;101603.50;4153763;28;20037;-83
2023/05/30 02:42:59;;;;;;;18.10;5.65;;;12.10;99.90;;;11.25;100.00;101602.25;4153329;28;20042;-82
2023/05/30 02:45:00;;;;;;;23.77;6.47;;;12.00;99.90;;;11.36;100.00;101625.03;4153588;28;20086;-82
2023/05/30 02:47:01;;;;;;;18.58;6.40;;;12.00;99.90;;;11.35;100.00;101640.03;4153738;28;20172;-83
2023/05/30 02:49:02;;;;;;;22.17;6.88;;;12.00;99.90;;;11.11;100.00;101598.19;4163020;28;20017;-83
2023/05/30 02:51:03;;;;;;;19.90;5.68;;;11.90;99.90;;;11.32;100.00;101628.94;4157635;28;20042;-83
2023/05/30 02:53:04;;;;;;;24.75;6.20;;;11.90;99.90;;;11.38;100.00;101629.19;4154428;28;20033;-83
2023/05/30 02:55:05;;;;;;;26.10;7.28;;;11.90;99.90;;;11.16;100.00;101602.25;4153557;28;20026;-83
2023/05/30 02:57:06;;;;;;;22.52;6.90;;;11.90;99.90;;;11.21;100.00;101610.56;4154537;28;20022;-83
2023/05/30 02:59:07;;;;;;;20.48;6.93;;;11.90;99.90;;;11.15;100.00;101616.41;4163944;28;20048;-82
2023/05/30 03:01:08;;;;;;;21.73;6.28;;;11.90;99.90;;;11.14;100.00;101612.13;4170739;28;20029;-82
2023/05/30 03:03:09;;;;;;;20.67;7.50;;;11.90;99.90;;;11.27;100.00;101639.06;4170860;28;20037;-82
2023/05/30 03:05:10;;;;;;;23.75;7.35;;;11.90;99.90;;;11.11;100.00;101616.69;4170781;28;20033;-83
2023/05/30 03:07:12;;;;;;;24.02;6.38;;;11.90;99.90;;;11.25;100.00;101636.56;4170815;28;20033;-83
2023/05/30 03:09:13;;;;;;;23.73;6.60;;;11.90;99.90;;;11.00;100.00;101605.41;4157850;28;20033;-82
2023/05/30 03:11:14;;;;;;;22.52;6.05;;;11.80;99.90;;;11.05;100.00;101617.22;4153223;28;20497;-82
2023/05/30 03:13:15;;;;;;;19.95;6.35;;;11.80;99.90;;;11.09;100.00;101616.00;4154079;28;20037;-82
2023/05/30 03:15:17;;;;;;;20.40;7.63;;;11.80;99.90;;;11.00;100.00;101606.25;4164772;28;20045;-82
2023/05/30 03:17:17;;;;;;;16.13;5.65;;;11.80;99.90;;;10.97;100.00;101601.25;4172023;28;20032;-82
2023/05/30 03:19:18;;;;;;;27.92;6.75;;;11.80;99.90;;;11.01;100.00;101615.84;4148852;28;20562;-83
2023/05/30 03:21:21;;;;;;;22.23;6.88;;;11.80;99.90;;;10.95;100.00;101605.84;4161171;28;20060;-82
2023/05/30 03:23:22;;;;;;;25.63;8.23;;;11.70;99.90;;;10.97;100.00;101609.16;4155386;28;20072;-82
2023/05/30 03:25:22;;;;;;;21.38;7.45;;;11.70;99.90;;;10.86;100.00;101596.09;4136401;28;20026;-82
2023/05/30 03:27:23;;;;;;;20.58;6.57;;;11.70;99.90;;;10.92;100.00;101606.13;4154098;28;20092;-82
2023/05/30 03:29:24;;;;;;;24.98;7.60;;;11.70;99.90;;;11.03;100.00;101632.38;4166564;28;20021;-82
2023/05/30 03:31:27;;;;;;;28.67;7.30;;;11.70;99.90;;;10.89;100.00;101602.91;4170611;28;20457;-82
2023/05/30 03:33:28;;;;;;;22.77;6.45;;;11.70;99.90;;;10.84;100.00;101605.94;4170270;28;20435;-82
2023/05/30 03:35:29;;;;;;;18.27;6.68;;;11.60;99.90;;;11.04;100.00;101628.78;4169614;28;20037;-83
2023/05/30 03:37:30;;;;;;;23.30;6.47;;;11.60;99.90;;;10.91;100.00;101606.25;4168868;28;20091;-83
2023/05/30 03:39:31;;;;;;;30.25;8.45;;;11.60;99.90;;;10.88;100.00;101609.16;4156727;28;20152;-83
2023/05/30 03:41:31;;;;;;;21.13;6.32;;;11.60;99.90;;;10.99;100.00;101622.25;4153738;28;20397;-82
2023/05/30 03:43:32;;;;;;;24.25;7.18;;;11.60;99.90;;;10.93;100.00;101623.59;4153853;28;20033;-83
2023/05/30 03:45:33;;;;;;;17.35;5.97;;;11.60;99.90;;;10.88;100.00;101615.28;4153757;28;20515;-82
2023/05/30 03:47:34;;;;;;;26.95;6.88;;;11.60;99.90;;;10.80;100.00;101609.84;4152575;28;20034;-83
2023/05/30 03:49:35;;;;;;;19.95;6.75;;;11.60;99.90;;;10.77;100.00;101610.13;4182791;28;20025;-83
2023/05/30 03:51:36;;;;;;;21.92;6.43;;;11.50;99.90;;;10.80;100.00;101617.75;4170084;28;20029;-82
2023/05/30 03:53:37;;;;;;;20.20;6.97;;;11.50;99.90;;;10.85;100.00;101618.19;4169016;28;20063;-83
2023/05/30 03:55:39;;;;;;;27.98;7.13;;;11.50;99.90;;;10.87;100.00;101631.25;4169971;28;20057;-82
2023/05/30 03:57:40;;;;;;;21.45;7.20;;;11.50;99.90;;;10.72;100.00;101604.41;4152240;28;20018;-82
2023/05/30 03:59:42;;;;;;;20.25;7.60;;;11.50;99.90;;;10.71;100.00;101607.19;4149566;28;20441;-83
2023/05/30 04:01:43;;;;;;;21.27;6.93;;;11.50;99.90;;;10.64;100.00;101600.78;4152167;28;20033;-83
2023/05/30 04:03:44;;;;;;;21.10;6.78;;;11.50;99.90;;;10.69;100.00;101615.25;4157912;28;20063;-82
2023/05/30 04:05:48;;;;;;;22.50;8.63;;;11.50;99.90;;;10.71;100.00;101613.31;4168626;28;20124;-83
2023/05/30 04:07:50;;;;;;;18.25;7.13;;;11.50;99.90;;;10.72;100.00;101616.78;4152335;28;20038;-83
2023/05/30 04:09:51;;;;;;;24.20;6.75;;;11.50;99.90;;;10.79;100.00;101629.28;4171143;28;20116;-83
2023/05/30 04:11:53;;;;;;;20.10;6.53;;;11.40;99.90;;;10.57;100.00;101604.94;4153310;28;20128;-83
2023/05/30 04:13:54;;;;;;;19.48;6.72;;;11.40;99.90;;;10.73;100.00;101632.47;4151804;28;20050;-83
2023/05/30 04:15:55;;;;;;;20.45;6.78;;;11.40;99.90;;;10.71;100.00;101628.28;4165095;28;20084;-83
2023/05/30 04:17:57;;;;;;;21.55;6.72;;;11.40;99.90;;;10.62;100.00;101613.28;4153378;28;20061;-83
2023/05/30 04:19:58;;;;;;;24.17;7.78;;;11.40;99.90;;;10.63;100.00;101614.94;4152320;28;20068;-83
2023/05/30 04:21:59;;;;;;;19.75;7.40;;;11.40;99.90;;;10.57;100.00;101606.59;4166986;28;20029;-82
2023/05/30 04:24:00;;;;;;;18.55;7.13;;;11.40;99.90;;;10.78;100.00;101630.25;4151734;28;20440;-83
2023/05/30 04:26:01;;;;;;;20.42;7.00;;;11.40;99.90;;;10.63;100.00;101613.16;4135738;28;20026;-83
2023/05/30 04:28:05;;;;;;;16.40;6.88;;;11.40;99.90;;;10.65;100.00;101613.84;4168621;28;20068;-82
2023/05/30 04:30:07;;;;;;;21.45;7.40;;;11.40;99.90;;;10.70;100.00;101622.19;4168516;28;20025;-82
2023/05/30 04:32:09;;;;;;;21.33;7.28;;;11.40;99.90;;;10.66;100.00;101610.25;4165871;28;20057;-82
2023/05/30 04:34:10;;;;;;;27.90;8.38;;;11.40;99.90;;;10.82;100.00;101646.66;4168005;28;20029;-82
2023/05/30 04:36:18;;;;;;;20.10;6.20;;;11.40;99.90;;;10.69;100.00;101620.53;4169325;28;20024;-83
2023/05/30 04:38:20;;;;;;;16.33;6.47;;;11.40;99.90;;;10.76;100.00;101626.06;4181827;28;20029;-83
2023/05/30 04:40:21;;;;;;;19.13;6.57;;;11.50;99.90;;;10.74;100.00;101618.31;4153068;28;20034;-81
2023/05/30 04:42:27;;;;;;;21.63;7.65;;;11.50;99.90;;;10.89;100.00;101640.72;4151734;28;20034;-82
2023/05/30 04:44:28;;;;;;;14.98;6.78;;;11.50;99.90;;;10.79;100.00;101621.38;4151578;28;20022;-82
2023/05/30 04:46:29;;;;;;;20.30;7.15;;;11.50;99.90;;;10.84;100.00;101624.41;4151621;28;20037;-82
2023/05/30 04:48:30;;;;;;;17.88;6.75;;;11.50;99.90;;;10.83;100.00;101620.13;4155366;28;20048;-82
2023/05/30 04:50:32;;;;;;;22.17;7.32;;;11.60;99.90;;;10.80;100.00;101612.50;4161535;28;20072;-82
2023/05/30 04:52:32;;;;;;;26.98;7.30;;;11.60;99.90;;;10.89;100.00;101626.66;4152976;28;20024;-83
2023/05/30 04:54:34;;;;;;;24.95;7.90;;;11.60;99.90;;;10.93;100.00;101622.78;4152647;28;20034;-82
2023/05/30 04:56:35;;;;;;;26.45;7.32;;;11.60;99.90;;;10.88;100.00;101607.34;4151751;28;20101;-82
2023/05/30 04:58:35;;;;;;;19.08;7.75;;;11.60;99.90;;;10.92;100.00;101616.69;4157354;28;20546;-82
2023/05/30 05:00:37;;;;;;;17.42;7.20;;;11.70;99.90;;;10.98;100.00;101631.13;4169181;28;20017;-83
2023/05/30 05:02:38;;;;;;;16.75;7.53;;;11.70;99.90;;;10.87;100.00;101613.59;4151648;28;20044;-82
2023/05/30 05:04:40;;;;;;;17.38;7.85;;;11.70;99.90;;;10.99;100.00;101636.25;4169185;28;20036;-82
2023/05/30 05:06:41;;;;;;;23.95;6.95;;;11.70;99.90;;;11.15;100.00;101653.38;4167906;28;20404;-82
2023/05/30 05:08:42;;;;;;;17.92;5.53;;;11.70;99.90;;;10.95;100.00;101615.56;4178692;28;20056;-82
2023/05/30 05:10:43;;;;;;;24.95;7.65;;;11.70;99.90;;;10.95;100.00;101628.75;4152479;28;20100;-82
2023/05/30 05:12:44;;;;;;;19.50;6.60;;;11.70;99.90;;;10.96;100.00;101619.88;4152294;28;20021;-82
2023/05/30 05:14:46;;;;;;;20.55;6.65;;;11.80;99.90;;;11.02;100.00;101628.06;4157413;28;20037;-82
2023/05/30 05:16:47;;;;;;;22.42;6.32;;;11.80;99.90;;;11.08;100.00;101640.72;4159251;28;20041;-82
2023/05/30 05:18:49;;;;;;;19.20;6.47;;;11.80;99.90;;;11.01;100.00;101615.00;4158341;28;20030;-82
2023/05/30 05:20:50;;;;;;;18.52;6.32;;;11.80;99.90;;;11.20;100.00;101645.91;4164668;28;20037;-82
2023/05/30 05:22:53;;;;;;;21.55;6.70;;;11.90;99.90;;;11.28;100.00;101653.94;4160976;28;20480;-82
2023/05/30 05:24:54;;;;;;;17.65;6.65;;;11.90;99.90;;;11.20;100.00;101633.50;4183906;28;20040;-83
2023/05/30 05:26:55;;;;;;;21.75;7.05;;;11.90;99.90;;;11.28;100.00;101648.66;4167480;28;20037;-82
2023/05/30 05:28:56;;;;;;;19.58;6.15;;;12.00;99.90;;;11.44;100.00;101670.09;4161564;28;20026;-82
2023/05/30 05:30:58;;;;;;;16.17;5.38;;;12.00;99.90;;;11.44;100.00;101668.25;4152363;28;20503;-82
2023/05/30 05:32:59;;;;;;;17.70;5.95;;;12.00;99.90;;;11.37;100.00;101659.25;4152301;28;20572;-82
2023/05/30 05:35:00;;;;;;;15.25;5.45;;;12.10;99.90;;;11.43;100.00;101652.56;4152262;28;20497;-82
2023/05/30 05:37:00;;;;;;;15.93;6.03;;;12.10;99.90;;;11.46;100.00;101657.56;4152195;28;20026;-82
2023/05/30 05:39:01;;;;;;;16.15;6.03;;;12.20;99.90;;;11.47;100.00;101654.78;4158673;28;20100;-82
2023/05/30 05:41:02;;;;;;;17.58;6.10;;;12.20;99.90;;;11.53;100.00;101671.88;4168752;28;20029;-82
2023/05/30 05:43:03;;;;;;;17.00;6.03;;;12.20;99.90;;;11.60;100.00;101671.19;4167013;28;20045;-82
2023/05/30 05:45:05;;;;;;;12.77;6.32;;;12.20;99.90;;;11.64;100.00;101679.69;4167285;28;20052;-82
2023/05/30 05:47:07;;;;;;;18.58;6.85;;;12.30;99.90;;;11.63;100.00;101664.78;4167415;28;20039;-82
2023/05/30 05:49:07;;;;;;;18.30;7.28;;;12.30;99.90;;;11.66;100.00;101665.34;4142707;28;20043;-82
2023/05/30 05:51:08;;;;;;;20.38;6.65;;;12.30;99.90;;;11.62;100.00;101647.25;4152480;28;20034;-82
2023/05/30 05:53:09;;;;;;;19.65;6.18;;;12.40;99.90;;;11.73;100.00;101667.47;4150865;28;20053;-82
2023/05/30 05:55:10;;;;;;;17.85;6.40;;;12.40;99.90;;;11.87;100.00;101685.53;4154403;28;20551;-81
2023/05/30 05:57:11;;;;;;;17.13;6.10;;;12.50;99.90;;;11.76;100.00;101664.53;4168476;28;20053;-82
2023/05/30 05:59:12;;;;;;;15.77;5.45;;;12.50;99.90;;;11.85;100.00;101667.19;4159222;28;20120;-82
2023/05/30 06:01:14;;;;;;;20.65;6.20;;;12.50;99.90;;;11.88;100.00;101679.28;4155274;28;20085;-82
2023/05/30 06:03:15;;;;;;;15.88;5.75;;;12.60;99.90;;;11.82;100.00;101662.16;4155578;28;20022;-82
2023/05/30 06:05:16;;;;;;;14.52;6.53;;;12.60;99.90;;;11.91;100.00;101660.47;4154039;28;20037;-82
2023/05/30 06:07:17;;;;;;;19.95;5.90;;;12.60;99.90;;;11.97;100.00;101678.41;4155291;28;20034;-82
2023/05/30 06:09:18;;;;;;;14.93;5.53;;;12.60;99.90;;;12.10;100.00;101685.06;4157138;28;20029;-82
2023/05/30 06:11:19;;;;;;;14.70;5.95;;;12.70;99.90;;;12.09;100.00;101683.41;4170512;28;20026;-82
2023/05/30 06:13:20;;;;;;;15.40;6.07;;;12.70;99.90;;;12.08;100.00;101676.44;4146266;28;20040;-82
2023/05/30 06:15:21;;;;;;;17.00;5.50;;;12.80;99.90;;;12.10;100.00;101669.19;4170303;28;20053;-82
2023/05/30 06:17:22;;;;;;;17.42;5.32;;;12.80;99.90;;;12.18;100.00;101673.78;4172263;28;20026;-82
2023/05/30 06:19:23;;;;;;;24.92;5.95;;;12.90;99.90;;;12.25;100.00;101676.66;4154080;28;20034;-83
2023/05/30 06:21:23;;;;;;;20.55;6.53;;;12.90;99.90;;;12.35;100.00;101688.06;4154201;28;20026;-82
2023/05/30 06:23:25;;;;;;;19.67;5.40;;;12.90;99.90;;;12.37;100.00;101681.63;4167992;28;20562;-81
2023/05/30 06:25:27;;;;;;;21.88;7.32;;;13.00;99.90;;;12.44;100.00;101666.03;4155513;28;20365;-82
2023/05/30 06:27:28;;;;;;;18.02;5.97;;;13.10;99.90;;;12.57;100.00;101680.56;4171265;28;20044;-81
2023/05/30 06:29:29;;;;;;;20.67;5.45;;;13.10;99.90;;;12.60;100.00;101676.84;4171294;28;20392;-81
2023/05/30 06:31:30;;;;;;;20.95;5.78;;;13.20;99.90;;;12.77;100.00;101694.56;4170131;28;20040;-81
2023/05/30 06:33:31;;;;;;;16.52;4.88;;;13.30;99.90;;;12.69;100.00;101689.19;4169100;28;20017;-80
2023/05/30 06:35:32;;;;;;;21.02;5.93;;;13.30;99.90;;;12.73;100.00;101691.38;4153573;28;20026;-80
2023/05/30 06:37:34;;;;;;;22.10;5.53;;;13.40;99.90;;;12.78;100.00;101701.56;4157324;28;20022;-81
2023/05/30 06:39:35;;;;;;;14.88;5.45;;;13.40;99.90;;;12.71;100.00;101674.81;4154798;28;20045;-81
2023/05/30 06:41:36;;;;;;;17.38;6.25;;;13.40;99.90;;;12.80;100.00;101678.41;4167274;28;20025;-81
2023/05/30 06:43:36;;;;;;;16.08;5.65;;;13.50;99.90;;;12.88;100.00;101686.44;4168665;28;20107;-81
2023/05/30 06:45:38;;;;;;;14.77;5.35;;;13.50;99.90;;;12.86;100.00;101682.25;4170030;28;20116;-81
2023/05/30 06:47:39;;;;;;;22.60;6.25;;;13.60;99.90;;;12.97;100.00;101682.88;4153715;28;20041;-81
2023/05/30 06:49:40;;;;;;;15.10;5.20;;;13.60;99.90;;;13.18;100.00;101707.34;4153517;28;20037;-82
2023/05/30 06:51:41;;;;;;;17.90;5.65;;;13.70;99.90;;;13.44;100.00;101707.41;4159602;28;20029;-80
2023/05/30 06:53:42;;;;;;;18.50;5.75;;;13.80;99.90;;;13.64;100.00;101684.25;4170960;28;20033;-78
2023/05/30 06:55:43;;;;;;;13.48;4.45;;;13.90;99.90;;;13.73;100.00;101678.03;4170753;28;20079;-78
2023/05/30 06:57:44;;;;;;;19.33;5.93;;;14.00;99.90;;;13.64;100.00;101679.78;4164029;28;20022;-78
2023/05/30 06:59:45;;;;;;;15.90;5.78;;;14.10;99.90;;;13.72;100.00;101682.50;4169620;28;20067;-78
2023/05/30 07:01:46;;;;;;;19.25;6.32;;;14.20;99.90;;;13.67;100.00;101668.03;4153341;28;20479;-78
2023/05/30 07:03:47;;;;;;;12.70;4.53;;;14.30;99.90;;;13.78;100.00;101697.81;4169727;28;20117;-78
2023/05/30 07:05:48;;;;;;;17.38;5.50;;;14.30;99.90;;;13.82;100.00;101688.56;4153374;28;20034;-78
2023/05/30 07:07:49;;;;;;;18.15;5.10;;;14.30;99.90;;;13.94;100.00;101688.31;4153090;28;20141;-78
2023/05/30 07:09:50;;;;;;;18.85;5.53;;;14.40;99.90;;;13.93;100.00;101679.50;4153034;28;20113;-78
2023/05/30 07:11:51;;;;;;;12.25;4.68;;;14.50;99.90;;;13.93;100.00;101690.13;4153282;28;20046;-78
2023/05/30 07:13:52;;;;;;;16.05;4.90;;;14.50;99.90;;;14.06;100.00;101701.16;4153955;28;20029;-78
2023/05/30 07:15:53;;;;;;;14.05;5.30;;;14.60;99.90;;;13.89;100.00;101678.13;4167648;28;20014;-78
2023/05/30 07:17:54;;;;;;;15.43;5.50;;;14.60;99.90;;;13.91;100.00;101688.63;4154605;28;20354;-78
2023/05/30 07:19:55;;;;;;;18.55;6.03;;;14.60;99.90;;;13.86;100.00;101670.50;4152991;28;20476;-78
2023/05/30 07:21:56;;;;;;;14.25;4.75;;;14.60;99.90;;;14.14;100.00;101698.56;4156428;28;20029;-77
2023/05/30 07:23:57;;;;;;;15.98;4.63;;;14.70;99.90;;;14.08;100.00;101674.47;4157724;28;20022;-77
2023/05/30 07:25:58;;;;;;;16.95;5.65;;;14.70;99.90;;;14.25;100.00;101687.69;4153100;28;20034;-78
2023/05/30 07:27:59;;;;;;;13.60;4.70;;;14.80;99.90;;;14.39;100.00;101695.09;4152748;28;20030;-78
2023/05/30 07:30:00;;;;;;;17.50;4.97;;;15.00;99.90;;;14.57;100.00;101699.50;4136588;28;20093;-78
2023/05/30 07:32:00;;;;;;;14.50;5.22;;;15.10;99.90;;;14.54;100.00;101699.81;4153134;28;20018;-78
2023/05/30 07:34:01;;;;;;;15.73;5.32;;;15.10;99.90;;;14.60;100.00;101693.88;4154050;28;20540;-78
2023/05/30 07:36:03;;;;;;;11.95;4.88;;;15.20;99.90;;;14.60;100.00;101677.94;4152867;28;20033;-78
2023/05/30 07:38:03;;;;;;;21.08;5.93;;;15.30;99.90;;;14.69;100.00;101695.59;4153833;28;20030;-78
2023/05/30 07:40:07;;;;;;;13.00;4.10;;;15.30;99.90;;;14.74;100.00;101682.66;4153715;28;20026;-78
2023/05/30 07:42:07;;;;;;;16.50;5.43;;;15.40;99.90;;;14.80;100.00;101684.66;4152780;28;20034;-78
2023/05/30 07:44:09;;;;;;;11.90;4.40;;;15.50;99.90;;;14.80;100.00;101679.34;4153475;28;20388;-78
2023/05/30 07:46:10;;;;;;;13.32;3.95;;;15.50;99.90;;;14.95;100.00;101688.38;4170169;28;20092;-78
2023/05/30 07:48:11;;;;;;;14.40;4.90;;;15.60;99.90;;;15.00;100.00;101696.69;4152556;28;20029;-78
2023/05/30 07:50:12;;;;;;;15.13;4.65;;;15.60;99.90;;;15.04;100.00;101670.63;4168808;28;20611;-78
2023/05/30 07:52:13;;;;;;;15.05;4.68;;;15.70;99.90;;;15.28;100.00;101686.63;4185185;28;20017;-78
2023/05/30 07:54:15;;;;;;;15.25;4.53;;;15.90;99.90;;;15.35;100.00;101685.78;4169041;28;20554;-78
2023/05/30 07:56:15;;;;;;;15.82;4.72;;;16.00;99.90;;;15.46;100.00;101684.66;4185075;28;20027;-78
2023/05/30 07:58:16;;;;;;;13.75;5.00;;;16.10;99.90;;;15.58;100.00;101691.34;4168404;28;20021;-78
2023/05/30 08:00:17;;;;;;;15.02;5.00;;;16.10;99.90;;;15.52;100.00;101680.53;4170021;28;20049;-78
2023/05/30 08:02:20;;;;;;;15.93;4.85;;;16.20;99.90;;;15.61;98.32;101685.72;4168566;28;20396;-78
2023/05/30 08:04:22;;;;;;;16.40;5.40;;;16.30;99.90;;;15.69;96.77;101692.84;4169755;28;20089;-78
2023/05/30 08:06:23;;;;;;;12.73;3.97;;;16.30;99.90;;;15.83;96.40;101692.19;4152114;28;20109;-78
2023/05/30 08:08:25;;;;;;;13.13;3.90;;;16.40;99.90;;;15.96;96.35;101689.84;4168646;28;20017;-78
2023/05/30 08:10:26;;;;;;;10.25;4.32;;;16.50;99.90;;;16.11;96.66;101706.78;4184960;28;20427;-78
2023/05/30 08:12:30;;;;;;;15.48;4.57;;;16.60;99.90;;;16.02;94.59;101689.16;4164269;28;20022;-78
2023/05/30 08:14:32;;;;;;;12.57;3.95;;;16.70;99.90;;;16.18;95.12;101694.47;4157797;28;20091;-78
2023/05/30 08:16:33;;;;;;;14.88;4.38;;;16.70;99.90;;;16.34;94.77;101704.25;4177297;28;20108;-78
2023/05/30 08:18:34;;;;;;;9.75;3.40;;;16.80;99.90;;;16.40;95.47;101685.75;4151969;28;20084;-78